Time;durP1;ratioP1;P1;durP2;ratioP2;P2;SDS_P1;SDS_P2;PMS_P1;PMS_P2;Temp;Humidity;BMP_temperature;BMP_pressure;BME280_temperature;BME280_humidity;BME280_pressure;Samples;Min_cycle;Max_cycle;Signal;HPM_P1;HPM_P2
2023/05/16 00:02:25;;;;;;;;;;;18.60;65.30;;;;;;5017922;28;905;-71
2023/05/16 00:04:51;;;;;;;;;;;18.60;65.20;;;;;;5021323;28;867;-71
2023/05/16 00:07:17;;;;;;;;;;;18.60;65.30;;;;;;5020685;28;891;-70
2023/05/16 00:09:42;;;;;;;;;;;18.60;65.30;;;;;;5020757;28;1346;-72
2023/05/16 00:12:08;;;;;;;;;;;18.60;65.30;;;;;;5022642;28;818;-70
2023/05/16 00:14:35;;;;;;;;;;;18.60;65.30;;;;;;5018459;28;923;-69
2023/05/16 00:17:00;;;;;;;;;;;18.60;65.30;;;;;;5005971;28;1663;-69
2023/05/16 00:19:28;;;;;;;;;;;18.60;65.30;;;;;;5022587;28;1965;-71
2023/05/16 00:21:54;;;;;;;;;;;18.60;65.40;;;;;;5022903;28;1352;-70
2023/05/16 00:24:20;;;;;;;;;;;18.60;65.30;;;;;;5024640;28;1033;-70
2023/05/16 00:26:45;;;;;;;;;;;18.60;65.30;;;;;;5008485;28;835;-71
2023/05/16 00:29:11;;;;;;;;;;;18.60;65.30;;;;;;5021418;28;884;-72
2023/05/16 00:31:36;;;;;;;;;;;18.60;65.30;;;;;;5021876;28;1176;-70
2023/05/16 00:34:02;;;;;;;;;;;18.50;65.30;;;;;;5026922;28;1101;-70
2023/05/16 00:36:27;;;;;;;;;;;18.60;65.40;;;;;;5028772;28;1022;-71
2023/05/16 00:38:53;;;;;;;;;;;18.60;65.30;;;;;;5017685;28;1973;-70
2023/05/16 00:41:18;;;;;;;;;;;18.60;66.10;;;;;;5020843;28;1245;-70
2023/05/16 00:43:44;;;;;;;;;;;18.60;65.30;;;;;;5021312;28;872;-71
2023/05/16 00:46:09;;;;;;;;;;;18.60;65.30;;;;;;5007080;28;1409;-70
2023/05/16 00:48:35;;;;;;;;;;;18.60;65.30;;;;;;5027228;28;892;-71
2023/05/16 00:51:00;;;;;;;;;;;18.60;65.30;;;;;;5022373;28;1368;-70
2023/05/16 00:53:26;;;;;;;;;;;18.60;65.30;;;;;;5016448;28;785;-72
2023/05/16 00:55:51;;;;;;;;;;;18.60;65.30;;;;;;5008604;28;1351;-70
2023/05/16 00:58:17;;;;;;;;;;;18.60;65.30;;;;;;5004367;28;1966;-70
2023/05/16 01:00:43;;;;;;;;;;;18.60;65.30;;;;;;5005194;28;1400;-73
2023/05/16 01:03:08;;;;;;;;;;;18.60;65.50;;;;;;5023933;28;1333;-71
2023/05/16 01:05:34;;;;;;;;;;;18.60;65.50;;;;;;5024472;28;1567;-70
2023/05/16 01:07:59;;;;;;;;;;;18.70;65.60;;;;;;5025217;28;1387;-70
2023/05/16 01:10:25;;;;;;;;;;;18.70;65.60;;;;;;5023334;28;1387;-70
2023/05/16 01:13:06;;;;;;;;;;;18.70;65.60;;;;;;5007334;28;1338;-70
2023/05/16 01:15:34;;;;;;;;;;;18.70;65.80;;;;;;5006156;28;946;-70
2023/05/16 01:18:07;;;;;;;;;;;18.80;65.90;;;;;;5006777;28;851;-69
2023/05/16 01:20:49;;;;;;;;;;;18.80;65.90;;;;;;5006905;28;1971;-70
2023/05/16 01:23:14;;;;;;;;;;;18.80;65.90;;;;;;5020121;28;1343;-70
2023/05/16 01:26:15;;;;;;;;;;;18.80;65.90;;;;;;5021719;28;836;-70
2023/05/16 01:28:41;;;;;;;;;;;18.80;66.00;;;;;;4961466;28;1282;-71
2023/05/16 01:31:07;;;;;;;;;;;18.80;66.00;;;;;;4995948;28;1291;-69
2023/05/16 01:33:32;;;;;;;;;;;18.90;66.20;;;;;;5018491;28;1376;-71
2023/05/16 01:35:57;;;;;;;;;;;18.90;66.20;;;;;;5023695;28;1061;-72
2023/05/16 01:38:28;;;;;;;;;;;18.90;66.30;;;;;;5020443;28;2008;-70
2023/05/16 01:40:56;;;;;;;;;;;18.90;66.40;;;;;;5005200;28;1677;-70
2023/05/16 01:43:28;;;;;;;;;;;18.90;66.40;;;;;;5020880;28;955;-73
2023/05/16 01:45:54;;;;;;;;;;;18.90;66.50;;;;;;5018385;28;939;-73
2023/05/16 01:48:21;;;;;;;;;;;18.90;66.50;;;;;;5002827;28;864;-71
2023/05/16 01:50:49;;;;;;;;;;;18.90;66.70;;;;;;5019076;28;1357;-72
2023/05/16 01:53:15;;;;;;;;;;;18.90;66.80;;;;;;5019349;28;974;-71
2023/05/16 01:55:53;;;;;;;;;;;18.90;66.70;;;;;;5003964;28;914;-72
2023/05/16 01:58:19;;;;;;;;;;;18.90;66.60;;;;;;5020732;28;1969;-73
2023/05/16 02:00:45;;;;;;;;;;;18.90;66.60;;;;;;5021974;28;1196;-71
2023/05/16 02:03:10;;;;;;;;;;;18.90;66.70;;;;;;5021472;28;1284;-73
2023/05/16 02:05:35;;;;;;;;;;;18.90;67.10;;;;;;5020659;28;851;-72
2023/05/16 02:08:01;;;;;;;;;;;18.90;67.10;;;;;;5021294;28;852;-70
2023/05/16 02:10:26;;;;;;;;;;;19.00;67.30;;;;;;5011622;28;1277;-72
2023/05/16 02:12:52;;;;;;;;;;;19.00;67.30;;;;;;5019639;28;891;-73
2023/05/16 02:15:18;;;;;;;;;;;19.00;67.20;;;;;;5019404;28;1005;-71
2023/05/16 02:17:43;;;;;;;;;;;19.00;67.20;;;;;;5004467;28;868;-72
2023/05/16 02:20:09;;;;;;;;;;;19.00;67.10;;;;;;5003667;28;1914;-71
2023/05/16 02:22:35;;;;;;;;;;;19.00;67.10;;;;;;5020413;28;840;-72
2023/05/16 02:25:02;;;;;;;;;;;19.00;67.10;;;;;;5003523;28;1299;-72
2023/05/16 02:27:27;;;;;;;;;;;19.00;67.10;;;;;;5017886;28;882;-72
2023/05/16 02:29:53;;;;;;;;;;;19.00;67.10;;;;;;5015983;28;1279;-72
2023/05/16 02:32:18;;;;;;;;;;;19.00;67.10;;;;;;4998501;28;1519;-72
2023/05/16 02:34:44;;;;;;;;;;;19.00;67.00;;;;;;5019694;28;1463;-72
2023/05/16 02:37:10;;;;;;;;;;;19.10;67.10;;;;;;5000391;28;1181;-72
2023/05/16 02:39:35;;;;;;;;;;;19.00;67.00;;;;;;5017339;28;1965;-71
2023/05/16 02:42:00;;;;;;;;;;;19.00;67.00;;;;;;5019932;28;1255;-73
2023/05/16 02:44:26;;;;;;;;;;;19.00;67.00;;;;;;5006624;28;887;-73
2023/05/16 02:46:51;;;;;;;;;;;19.00;67.10;;;;;;5004795;28;841;-71
2023/05/16 02:49:17;;;;;;;;;;;19.00;67.10;;;;;;5005936;28;893;-73
2023/05/16 02:51:42;;;;;;;;;;;19.00;67.30;;;;;;5007293;28;1376;-72
2023/05/16 02:54:08;;;;;;;;;;;19.00;67.40;;;;;;5004646;28;938;-73
2023/05/16 02:56:34;;;;;;;;;;;19.00;67.40;;;;;;5020531;28;902;-73
2023/05/16 02:59:00;;;;;;;;;;;19.00;67.40;;;;;;5020767;28;1902;-73
2023/05/16 03:01:25;;;;;;;;;;;19.00;67.50;;;;;;5020055;28;1286;-72
2023/05/16 03:03:51;;;;;;;;;;;19.00;69.00;;;;;;5017777;28;859;-73
2023/05/16 03:06:16;;;;;;;;;;;19.10;69.20;;;;;;5001102;28;822;-72
2023/05/16 03:08:42;;;;;;;;;;;19.10;69.10;;;;;;5000580;28;847;-71
2023/05/16 03:11:07;;;;;;;;;;;19.10;68.70;;;;;;5017868;28;1245;-72
2023/05/16 03:13:33;;;;;;;;;;;19.20;68.70;;;;;;5018424;28;872;-72
2023/05/16 03:15:58;;;;;;;;;;;19.20;68.20;;;;;;5019979;28;864;-72
2023/05/16 03:18:24;;;;;;;;;;;19.10;68.10;;;;;;5005024;28;1923;-71
2023/05/16 03:20:51;;;;;;;;;;;19.20;68.20;;;;;;5018497;28;1345;-72
2023/05/16 03:23:18;;;;;;;;;;;19.10;68.30;;;;;;5020721;28;960;-72
2023/05/16 03:25:45;;;;;;;;;;;19.10;68.30;;;;;;5019825;28;819;-72
2023/05/16 03:28:10;;;;;;;;;;;19.10;68.40;;;;;;5017596;28;859;-71
2023/05/16 03:30:36;;;;;;;;;;;19.10;68.50;;;;;;5004586;28;1431;-72
2023/05/16 03:33:02;;;;;;;;;;;19.10;68.50;;;;;;5020038;28;869;-71
2023/05/16 03:35:28;;;;;;;;;;;19.10;68.70;;;;;;5021307;28;1470;-72
2023/05/16 03:37:53;;;;;;;;;;;19.10;68.60;;;;;;5019584;28;807;-72
2023/05/16 03:40:19;;;;;;;;;;;19.10;68.60;;;;;;5015625;28;1957;-72
2023/05/16 03:42:44;;;;;;;;;;;19.10;69.40;;;;;;5019602;28;832;-73
2023/05/16 03:45:10;;;;;;;;;;;19.10;69.40;;;;;;5019205;28;920;-73
2023/05/16 03:47:36;;;;;;;;;;;19.10;69.30;;;;;;5019965;28;958;-73
2023/05/16 03:50:02;;;;;;;;;;;19.10;69.30;;;;;;5019700;28;1410;-72
2023/05/16 03:52:27;;;;;;;;;;;19.20;69.20;;;;;;5005099;28;1249;-72
2023/05/16 03:54:53;;;;;;;;;;;19.20;69.20;;;;;;5004188;28;919;-71
2023/05/16 03:57:18;;;;;;;;;;;19.20;69.20;;;;;;5016602;28;922;-72
2023/05/16 03:59:44;;;;;;;;;;;19.20;69.30;;;;;;4999813;28;1894;-71
2023/05/16 04:02:09;;;;;;;;;;;19.20;69.20;;;;;;5005880;28;923;-71
2023/05/16 04:04:35;;;;;;;;;;;19.20;69.10;;;;;;5020709;28;816;-73
2023/05/16 04:07:01;;;;;;;;;;;19.20;69.20;;;;;;5022175;28;846;-72
2023/05/16 04:09:26;;;;;;;;;;;19.20;69.00;;;;;;4988581;28;1242;-72
2023/05/16 04:11:51;;;;;;;;;;;19.20;68.90;;;;;;5006637;28;1229;-72
2023/05/16 04:14:17;;;;;;;;;;;19.20;68.80;;;;;;5019942;28;885;-73
2023/05/16 04:16:42;;;;;;;;;;;19.20;68.70;;;;;;5019815;28;823;-72
2023/05/16 04:19:08;;;;;;;;;;;19.20;68.70;;;;;;5007429;28;1906;-73
2023/05/16 04:21:35;;;;;;;;;;;19.20;69.20;;;;;;5009623;28;1321;-73
2023/05/16 04:24:00;;;;;;;;;;;19.20;69.40;;;;;;5022405;28;1001;-73
2023/05/16 04:26:26;;;;;;;;;;;19.20;69.20;;;;;;5025222;28;879;-73
2023/05/16 04:28:51;;;;;;;;;;;19.20;69.10;;;;;;5022416;28;820;-73
2023/05/16 04:31:17;;;;;;;;;;;19.20;68.90;;;;;;5024073;28;2150;-73
2023/05/16 04:33:42;;;;;;;;;;;19.30;69.00;;;;;;5007902;28;1117;-73
2023/05/16 04:36:08;;;;;;;;;;;19.30;69.00;;;;;;5022424;28;999;-73
2023/05/16 04:38:33;;;;;;;;;;;19.30;68.90;;;;;;5004069;28;1959;-72
2023/05/16 04:41:00;;;;;;;;;;;19.30;68.90;;;;;;5020992;28;1295;-73
2023/05/16 04:43:26;;;;;;;;;;;19.30;69.00;;;;;;5022571;28;843;-72
2023/05/16 04:45:52;;;;;;;;;;;19.30;69.20;;;;;;5017927;28;867;-72
2023/05/16 04:48:18;;;;;;;;;;;19.30;69.00;;;;;;5020568;28;827;-73
2023/05/16 04:50:43;;;;;;;;;;;19.30;69.20;;;;;;5020282;28;1237;-72
2023/05/16 04:53:09;;;;;;;;;;;19.30;69.10;;;;;;5021947;28;1442;-73
2023/05/16 04:55:34;;;;;;;;;;;19.30;69.30;;;;;;5005038;28;1212;-73
2023/05/16 04:58:00;;;;;;;;;;;19.30;69.70;;;;;;5021810;28;880;-71
2023/05/16 05:00:25;;;;;;;;;;;19.30;69.70;;;;;;5020345;28;1898;-72
2023/05/16 05:02:51;;;;;;;;;;;19.30;69.90;;;;;;5019207;28;866;-72
2023/05/16 05:05:16;;;;;;;;;;;19.30;69.70;;;;;;5002006;28;866;-72
2023/05/16 05:07:42;;;;;;;;;;;19.30;70.10;;;;;;5021926;28;876;-72
2023/05/16 05:10:10;;;;;;;;;;;19.30;70.50;;;;;;5010048;28;1329;-72
2023/05/16 05:12:35;;;;;;;;;;;19.30;70.10;;;;;;5018356;28;828;-72
2023/05/16 05:15:01;;;;;;;;;;;19.30;69.90;;;;;;5016473;28;828;-70
2023/05/16 05:17:27;;;;;;;;;;;19.30;69.90;;;;;;5022259;28;919;-70
2023/05/16 05:19:52;;;;;;;;;;;19.30;69.80;;;;;;5003723;28;1979;-73
2023/05/16 05:22:17;;;;;;;;;;;19.30;69.80;;;;;;5018319;28;1251;-72
2023/05/16 05:24:43;;;;;;;;;;;19.30;69.70;;;;;;5025364;28;1264;-71
2023/05/16 05:27:09;;;;;;;;;;;19.30;69.70;;;;;;5020345;28;1361;-72
2023/05/16 05:29:34;;;;;;;;;;;19.30;69.60;;;;;;5017744;28;2122;-71
2023/05/16 05:32:00;;;;;;;;;;;19.30;69.80;;;;;;5019384;28;1977;-71
2023/05/16 05:34:25;;;;;;;;;;;19.30;69.80;;;;;;5022128;28;1445;-71
2023/05/16 05:36:50;;;;;;;;;;;19.30;69.70;;;;;;5020472;28;1437;-72
2023/05/16 05:39:16;;;;;;;;;;;19.30;69.70;;;;;;5018992;28;1963;-71
2023/05/16 05:41:41;;;;;;;;;;;19.30;69.70;;;;;;5004939;28;1271;-71
2023/05/16 05:44:07;;;;;;;;;;;19.30;69.60;;;;;;5024614;28;1340;-70
2023/05/16 05:46:32;;;;;;;;;;;19.30;69.60;;;;;;5022835;28;1164;-71
2023/05/16 05:48:58;;;;;;;;;;;19.30;69.60;;;;;;5022463;28;875;-70
2023/05/16 05:51:24;;;;;;;;;;;19.30;69.50;;;;;;5022586;28;1603;-70
2023/05/16 05:53:50;;;;;;;;;;;19.30;69.50;;;;;;5003638;28;870;-73
2023/05/16 05:56:16;;;;;;;;;;;19.30;69.80;;;;;;5020728;28;1026;-73
2023/05/16 05:58:41;;;;;;;;;;;19.30;69.70;;;;;;5016139;28;1902;-71
2023/05/16 06:01:06;;;;;;;;;;;19.30;69.50;;;;;;5021409;28;1256;-72
2023/05/16 06:03:32;;;;;;;;;;;19.30;69.50;;;;;;5006096;28;907;-74
2023/05/16 06:05:58;;;;;;;;;;;19.30;69.40;;;;;;5020568;28;847;-73
2023/05/16 06:08:23;;;;;;;;;;;19.30;69.40;;;;;;5017416;28;894;-75
2023/05/16 06:10:49;;;;;;;;;;;19.30;69.40;;;;;;5021060;28;1336;-73
2023/05/16 06:13:14;;;;;;;;;;;19.30;69.50;;;;;;4997243;28;983;-70
2023/05/16 06:15:40;;;;;;;;;;;19.30;69.50;;;;;;5018868;28;835;-71
2023/05/16 06:18:05;;;;;;;;;;;19.30;69.50;;;;;;5022079;28;879;-71
2023/05/16 06:20:31;;;;;;;;;;;19.30;69.50;;;;;;5013722;28;1970;-71
2023/05/16 06:22:56;;;;;;;;;;;19.30;69.70;;;;;;5010070;28;1368;-71
2023/05/16 06:25:22;;;;;;;;;;;19.30;69.90;;;;;;5005190;28;1493;-70
2023/05/16 06:27:47;;;;;;;;;;;19.30;69.60;;;;;;5019348;28;793;-71
2023/05/16 06:30:13;;;;;;;;;;;19.30;69.60;;;;;;5020539;28;1277;-71
2023/05/16 06:32:40;;;;;;;;;;;19.30;69.50;;;;;;5018180;28;1190;-70
2023/05/16 06:35:06;;;;;;;;;;;19.30;69.60;;;;;;5018079;28;1438;-70
2023/05/16 06:37:31;;;;;;;;;;;19.30;69.50;;;;;;5020777;28;833;-71
2023/05/16 06:39:58;;;;;;;;;;;19.30;69.60;;;;;;5016144;28;1910;-70
2023/05/16 06:42:23;;;;;;;;;;;19.30;69.60;;;;;;5003106;28;871;-70
2023/05/16 06:44:49;;;;;;;;;;;19.30;69.60;;;;;;5016911;28;830;-70
2023/05/16 06:47:14;;;;;;;;;;;19.30;69.60;;;;;;5019215;28;847;-69
2023/05/16 06:49:40;;;;;;;;;;;19.30;69.70;;;;;;5025920;28;826;-71
2023/05/16 06:52:05;;;;;;;;;;;19.30;69.80;;;;;;5021024;28;1287;-69
2023/05/16 06:54:31;;;;;;;;;;;19.30;69.90;;;;;;5021007;28;1124;-69
2023/05/16 06:56:56;;;;;;;;;;;19.40;70.10;;;;;;5016201;28;812;-69
2023/05/16 06:59:22;;;;;;;;;;;19.30;70.40;;;;;;5018510;28;1956;-69
2023/05/16 07:01:48;;;;;;;;;;;19.40;70.90;;;;;;5019739;28;1353;-69
2023/05/16 07:04:14;;;;;;;;;;;19.40;70.20;;;;;;5019152;28;847;-69
2023/05/16 07:06:40;;;;;;;;;;;19.40;70.20;;;;;;5018095;28;923;-69
2023/05/16 07:09:06;;;;;;;;;;;19.40;70.30;;;;;;5019874;28;891;-69
2023/05/16 07:11:31;;;;;;;;;;;19.40;70.20;;;;;;5022663;28;1339;-69
2023/05/16 07:13:57;;;;;;;;;;;19.40;70.20;;;;;;5022768;28;827;-69
2023/05/16 07:16:23;;;;;;;;;;;19.40;70.20;;;;;;5018031;28;871;-70
2023/05/16 07:18:48;;;;;;;;;;;19.40;70.30;;;;;;5020178;28;1977;-69
2023/05/16 07:21:13;;;;;;;;;;;19.40;70.30;;;;;;5020243;28;1337;-71
2023/05/16 07:23:39;;;;;;;;;;;19.30;70.20;;;;;;5017002;28;2178;-70
2023/05/16 07:26:04;;;;;;;;;;;19.30;70.30;;;;;;5018763;28;1908;-70
2023/05/16 07:28:30;;;;;;;;;;;19.30;70.30;;;;;;5022053;28;1423;-70
2023/05/16 07:30:57;;;;;;;;;;;19.30;70.50;;;;;;5016724;28;2177;-69
2023/05/16 07:33:23;;;;;;;;;;;19.30;70.50;;;;;;5021721;28;1339;-70
2023/05/16 07:35:49;;;;;;;;;;;19.30;70.80;;;;;;5016633;28;1430;-70
2023/05/16 07:38:14;;;;;;;;;;;19.30;70.70;;;;;;5004389;28;1388;-70
2023/05/16 07:40:40;;;;;;;;;;;19.40;70.40;;;;;;5017104;28;1898;-70
2023/05/16 07:43:05;;;;;;;;;;;19.30;70.40;;;;;;5017272;28;837;-71
2023/05/16 07:45:31;;;;;;;;;;;19.30;70.30;;;;;;5021812;28;1559;-71
2023/05/16 07:47:57;;;;;;;;;;;19.30;70.10;;;;;;5002968;28;871;-70
2023/05/16 07:50:22;;;;;;;;;;;19.30;70.30;;;;;;5007371;28;1320;-71
2023/05/16 07:52:48;;;;;;;;;;;19.30;70.20;;;;;;5019431;28;882;-70
2023/05/16 07:55:13;;;;;;;;;;;19.30;70.20;;;;;;5023071;28;975;-70
2023/05/16 07:57:39;;;;;;;;;;;19.30;70.40;;;;;;5014889;28;2145;-71
2023/05/16 08:00:04;;;;;;;;;;;19.30;70.30;;;;;;5002092;28;1903;-70
2023/05/16 08:02:30;;;;;;;;;;;19.30;70.50;;;;;;5018710;28;1377;-71
2023/05/16 08:04:56;;;;;;;;;;;19.30;70.50;;;;;;5021260;28;1250;-71
2023/05/16 08:07:22;;;;;;;;;;;19.30;70.50;;;;;;5019477;28;848;-71
2023/05/16 08:09:47;;;;;;;;;;;19.30;70.50;;;;;;5019161;28;1266;-70
2023/05/16 08:12:13;;;;;;;;;;;19.40;70.80;;;;;;5018421;28;935;-71
2023/05/16 08:14:38;;;;;;;;;;;19.30;70.50;;;;;;5016649;28;878;-70
2023/05/16 08:17:04;;;;;;;;;;;19.40;70.60;;;;;;5003388;28;967;-71
2023/05/16 08:19:31;;;;;;;;;;;19.40;70.70;;;;;;5023058;28;1965;-70
2023/05/16 08:21:57;;;;;;;;;;;19.30;70.70;;;;;;5019731;28;1343;-70
2023/05/16 08:24:22;;;;;;;;;;;19.40;70.80;;;;;;5015929;28;1345;-70
2023/05/16 08:26:47;;;;;;;;;;;19.40;71.00;;;;;;5016112;28;792;-70
2023/05/16 08:29:13;;;;;;;;;;;19.40;71.20;;;;;;5020371;28;1006;-70
2023/05/16 08:31:38;;;;;;;;;;;19.40;71.20;;;;;;5022119;28;1471;-70
2023/05/16 08:34:05;;;;;;;;;;;19.40;71.20;;;;;;5020281;28;2142;-70
2023/05/16 08:36:32;;;;;;;;;;;19.30;71.20;;;;;;5017882;28;2111;-70
2023/05/16 08:38:58;;;;;;;;;;;19.30;71.10;;;;;;5004436;28;1898;-70
2023/05/16 08:41:23;;;;;;;;;;;19.30;71.20;;;;;;5021838;28;2108;-71
2023/05/16 08:43:48;;;;;;;;;;;19.30;71.30;;;;;;4999146;28;2315;-70
2023/05/16 08:46:15;;;;;;;;;;;19.30;71.40;;;;;;5020086;28;2260;-70
2023/05/16 08:48:40;;;;;;;;;;;19.30;71.30;;;;;;5008030;28;2329;-70
2023/05/16 08:51:07;;;;;;;;;;;19.30;71.40;;;;;;5003277;28;2244;-70
2023/05/16 08:53:36;;;;;;;;;;;19.30;71.30;;;;;;5022886;28;1348;-70
2023/05/16 08:56:01;;;;;;;;;;;19.20;71.20;;;;;;5004939;28;1852;-70
2023/05/16 08:58:28;;;;;;;;;;;19.30;71.30;;;;;;5020474;28;1371;-70
2023/05/16 09:00:54;;;;;;;;;;;19.30;71.30;;;;;;5004781;28;2237;-70
2023/05/16 09:03:22;;;;;;;;;;;19.30;71.30;;;;;;5008964;28;1366;-70
2023/05/16 09:05:47;;;;;;;;;;;19.30;71.30;;;;;;5012610;28;1859;-71
2023/05/16 09:08:12;;;;;;;;;;;19.30;71.50;;;;;;5022177;28;1386;-71
2023/05/16 09:10:38;;;;;;;;;;;19.30;71.30;;;;;;5006562;28;1374;-71
2023/05/16 09:13:03;;;;;;;;;;;19.30;71.20;;;;;;5020369;28;892;-70
2023/05/16 09:15:32;;;;;;;;;;;19.30;71.30;;;;;;5020890;28;869;-70
2023/05/16 09:17:59;;;;;;;;;;;19.30;71.50;;;;;;5021738;28;1331;-71
2023/05/16 09:20:25;;;;;;;;;;;19.30;71.60;;;;;;5005449;28;1967;-71
2023/05/16 09:22:57;;;;;;;;;;;19.30;71.40;;;;;;5004579;28;859;-70
2023/05/16 09:25:24;;;;;;;;;;;19.30;71.40;;;;;;5007002;28;1547;-70
2023/05/16 09:27:56;;;;;;;;;;;19.30;71.20;;;;;;5022241;28;831;-70
2023/05/16 09:30:24;;;;;;;;;;;19.30;71.20;;;;;;5021953;28;1382;-71
2023/05/16 09:32:50;;;;;;;;;;;19.30;71.10;;;;;;5023764;28;974;-70
2023/05/16 09:35:16;;;;;;;;;;;19.30;71.20;;;;;;5022555;28;1350;-71
2023/05/16 09:37:48;;;;;;;;;;;19.30;71.10;;;;;;5007255;28;828;-71
2023/05/16 09:40:14;;;;;;;;;;;19.30;71.10;;;;;;5022452;28;1901;-70
2023/05/16 09:42:40;;;;;;;;;;;19.30;71.00;;;;;;5021855;28;2147;-71
2023/05/16 09:45:06;;;;;;;;;;;19.30;71.00;;;;;;5005118;28;2216;-73
2023/05/16 09:47:31;;;;;;;;;;;19.30;71.00;;;;;;5023653;28;1420;-71
2023/05/16 09:49:57;;;;;;;;;;;19.30;71.10;;;;;;5020162;28;1312;-71
2023/05/16 09:52:25;;;;;;;;;;;19.30;71.10;;;;;;5004142;28;1347;-71
2023/05/16 09:54:51;;;;;;;;;;;19.30;71.10;;;;;;5020673;28;1229;-71
2023/05/16 09:57:20;;;;;;;;;;;19.30;71.30;;;;;;5017043;28;879;-71
2023/05/16 09:59:46;;;;;;;;;;;19.30;71.40;;;;;;5005559;28;1915;-71
2023/05/16 10:02:11;;;;;;;;;;;19.30;71.40;;;;;;5007873;28;867;-72
2023/05/16 10:04:37;;;;;;;;;;;19.30;71.40;;;;;;5007077;28;906;-71
2023/05/16 10:07:08;;;;;;;;;;;19.30;71.50;;;;;;5016340;28;875;-74
2023/05/16 10:09:34;;;;;;;;;;;19.30;71.60;;;;;;5009996;28;1464;-70
2023/05/16 10:12:02;;;;;;;;;;;19.30;71.60;;;;;;5006881;28;1613;-68
2023/05/16 10:14:27;;;;;;;;;;;19.30;71.60;;;;;;5022649;28;1379;-68
2023/05/16 10:16:52;;;;;;;;;;;19.30;71.60;;;;;;5019912;28;818;-67
2023/05/16 10:19:19;;;;;;;;;;;19.30;71.80;;;;;;5016767;28;1902;-72
2023/05/16 10:21:45;;;;;;;;;;;19.40;72.40;;;;;;5007530;28;1298;-72
2023/05/16 10:24:10;;;;;;;;;;;19.40;72.50;;;;;;5004527;28;1327;-72
2023/05/16 10:26:36;;;;;;;;;;;19.40;72.50;;;;;;5003351;28;1027;-72
2023/05/16 10:29:01;;;;;;;;;;;19.40;72.00;;;;;;5010061;28;986;-73
2023/05/16 10:31:27;;;;;;;;;;;19.40;72.60;;;;;;5019221;28;1354;-73
2023/05/16 10:33:52;;;;;;;;;;;19.40;71.60;;;;;;5006489;28;1381;-73
2023/05/16 10:36:18;;;;;;;;;;;19.40;71.40;;;;;;5004140;28;891;-72
2023/05/16 10:38:43;;;;;;;;;;;19.40;71.60;;;;;;5020435;28;1958;-72
2023/05/16 10:41:09;;;;;;;;;;;19.40;71.50;;;;;;5021549;28;1273;-72
2023/05/16 10:43:35;;;;;;;;;;;19.40;71.50;;;;;;5005440;28;951;-73
2023/05/16 10:46:06;;;;;;;;;;;19.40;71.40;;;;;;5004365;28;879;-73
2023/05/16 10:48:32;;;;;;;;;;;19.40;71.20;;;;;;5012234;28;865;-75
2023/05/16 10:50:57;;;;;;;;;;;19.40;71.30;;;;;;5020879;28;1285;-73
2023/05/16 10:53:33;;;;;;;;;;;19.40;71.30;;;;;;5009884;28;857;-73
2023/05/16 10:55:58;;;;;;;;;;;19.40;71.30;;;;;;5005874;28;808;-73
2023/05/16 10:58:38;;;;;;;;;;;19.40;71.30;;;;;;5018643;28;986;-73
2023/05/16 11:01:22;;;;;;;;;;;19.40;71.40;;;;;;5017885;28;1906;-73
2023/05/16 11:04:03;;;;;;;;;;;19.40;71.50;;;;;;5009735;28;1762;-69
2023/05/16 11:06:42;;;;;;;;;;;19.40;72.10;;;;;;5019859;28;931;-69
2023/05/16 11:09:12;;;;;;;;;;;19.40;71.00;;;;;;5015494;28;882;-68
2023/05/16 11:11:57;;;;;;;;;;;19.40;68.30;;;;;;5021437;28;1405;-69
2023/05/16 11:14:23;;;;;;;;;;;19.30;66.90;;;;;;5019409;28;855;-69
2023/05/16 11:16:50;;;;;;;;;;;19.30;65.80;;;;;;5003125;28;791;-67
2023/05/16 11:19:27;;;;;;;;;;;19.20;65.00;;;;;;5006059;28;1910;-68
2023/05/16 11:22:06;;;;;;;;;;;19.20;64.40;;;;;;5004146;28;1367;-67
2023/05/16 11:24:32;;;;;;;;;;;19.20;64.10;;;;;;5010942;28;1359;-69
2023/05/16 11:27:00;;;;;;;;;;;19.10;63.70;;;;;;5020027;28;804;-67
2023/05/16 11:29:33;;;;;;;;;;;19.10;63.40;;;;;;5003628;28;1622;-68
2023/05/16 11:31:59;;;;;;;;;;;19.10;63.20;;;;;;5003279;28;1389;-67
2023/05/16 11:34:24;;;;;;;;;;;19.10;63.20;;;;;;5005749;28;940;-69
2023/05/16 11:36:51;;;;;;;;;;;19.00;62.70;;;;;;5003606;28;895;-69
2023/05/16 11:39:18;;;;;;;;;;;19.10;62.60;;;;;;5016747;28;1906;-69
2023/05/16 11:41:43;;;;;;;;;;;19.00;62.40;;;;;;5018015;28;1343;-70
2023/05/16 11:44:12;;;;;;;;;;;19.00;62.30;;;;;;5018049;28;958;-68
2023/05/16 11:46:40;;;;;;;;;;;19.00;62.10;;;;;;5005752;28;812;-68
2023/05/16 11:49:08;;;;;;;;;;;19.00;62.10;;;;;;5018345;28;974;-68
2023/05/16 11:51:34;;;;;;;;;;;19.00;61.80;;;;;;5006695;28;1275;-69
2023/05/16 11:54:00;;;;;;;;;;;18.90;62.00;;;;;;5005268;28;1434;-69
2023/05/16 11:56:26;;;;;;;;;;;18.90;61.90;;;;;;5003326;28;965;-68
2023/05/16 11:58:51;;;;;;;;;;;18.90;62.20;;;;;;5020542;28;1902;-68
2023/05/16 12:01:17;;;;;;;;;;;18.90;62.40;;;;;;5005864;28;1309;-70
2023/05/16 12:03:42;;;;;;;;;;;18.90;62.30;;;;;;5022949;28;839;-68
2023/05/16 12:06:08;;;;;;;;;;;18.90;61.50;;;;;;5022231;28;891;-69
2023/05/16 12:08:34;;;;;;;;;;;18.90;61.80;;;;;;5018704;28;842;-69
2023/05/16 12:11:00;;;;;;;;;;;18.90;61.80;;;;;;5016883;28;1280;-68
2023/05/16 12:13:25;;;;;;;;;;;18.80;62.40;;;;;;5008060;28;1260;-70
2023/05/16 12:15:51;;;;;;;;;;;18.90;62.30;;;;;;5018472;28;813;-68
2023/05/16 12:18:17;;;;;;;;;;;18.80;62.30;;;;;;5001630;28;833;-69
2023/05/16 12:20:43;;;;;;;;;;;18.80;60.90;;;;;;5020156;28;1902;-69
2023/05/16 12:23:11;;;;;;;;;;;18.80;61.70;;;;;;5021422;28;1337;-68
2023/05/16 12:25:42;;;;;;;;;;;18.80;61.70;;;;;;5007736;28;800;-71
2023/05/16 12:28:08;;;;;;;;;;;18.80;61.70;;;;;;5022657;28;871;-70
2023/05/16 12:30:34;;;;;;;;;;;18.80;62.00;;;;;;5018587;28;1267;-71
2023/05/16 12:33:01;;;;;;;;;;;18.80;62.80;;;;;;5022752;28;1540;-70
2023/05/16 12:35:32;;;;;;;;;;;18.80;62.30;;;;;;5010124;28;1388;-71
2023/05/16 12:37:57;;;;;;;;;;;18.80;62.80;;;;;;5021316;28;921;-70
2023/05/16 12:40:23;;;;;;;;;;;18.80;62.60;;;;;;5012190;28;1906;-70
2023/05/16 12:42:50;;;;;;;;;;;18.80;62.80;;;;;;5007606;28;1478;-71
2023/05/16 12:45:16;;;;;;;;;;;18.80;62.70;;;;;;5022001;28;843;-69
2023/05/16 12:47:41;;;;;;;;;;;18.80;62.50;;;;;;5005423;28;1176;-70
2023/05/16 12:50:13;;;;;;;;;;;18.80;62.50;;;;;;5007496;28;1296;-71
2023/05/16 12:52:57;;;;;;;;;;;18.80;62.50;;;;;;5021603;28;846;-71
2023/05/16 12:55:22;;;;;;;;;;;18.70;62.40;;;;;;5004041;28;901;-71
2023/05/16 12:57:48;;;;;;;;;;;18.70;62.30;;;;;;5019997;28;838;-69
2023/05/16 13:00:14;;;;;;;;;;;18.80;62.40;;;;;;5025698;28;1967;-70
2023/05/16 13:02:40;;;;;;;;;;;18.70;62.10;;;;;;5006961;28;1844;-70
2023/05/16 13:05:12;;;;;;;;;;;18.70;62.10;;;;;;4995870;28;2163;-70
2023/05/16 13:07:40;;;;;;;;;;;18.70;62.00;;;;;;5009862;28;2000;-70
2023/05/16 13:10:12;;;;;;;;;;;18.70;61.70;;;;;;5022836;28;1463;-71
2023/05/16 13:12:38;;;;;;;;;;;18.70;61.50;;;;;;5006579;28;1454;-69
2023/05/16 13:15:04;;;;;;;;;;;18.70;61.40;;;;;;5008212;28;1477;-69
2023/05/16 13:17:29;;;;;;;;;;;18.70;61.30;;;;;;5006160;28;1481;-69
2023/05/16 13:19:57;;;;;;;;;;;18.70;61.00;;;;;;5020294;28;1989;-70
2023/05/16 13:22:22;;;;;;;;;;;18.70;61.00;;;;;;5021674;28;895;-69
2023/05/16 13:24:48;;;;;;;;;;;18.70;60.60;;;;;;5021182;28;1324;-69
2023/05/16 13:27:14;;;;;;;;;;;18.70;60.70;;;;;;5025530;28;1322;-71
2023/05/16 13:29:40;;;;;;;;;;;18.70;60.30;;;;;;5026079;28;1711;-71
2023/05/16 13:32:06;;;;;;;;;;;18.70;60.50;;;;;;5010880;28;1378;-70
2023/05/16 13:34:32;;;;;;;;;;;18.70;60.40;;;;;;5023152;28;1419;-71
2023/05/16 13:36:58;;;;;;;;;;;18.70;60.00;;;;;;5025929;28;1544;-71
2023/05/16 13:39:23;;;;;;;;;;;18.70;60.10;;;;;;5014298;28;1902;-70
2023/05/16 13:41:50;;;;;;;;;;;18.70;59.90;;;;;;5020433;28;1425;-72
2023/05/16 13:44:15;;;;;;;;;;;18.80;59.90;;;;;;5022628;28;1377;-69
2023/05/16 13:46:41;;;;;;;;;;;18.70;59.80;;;;;;5020986;28;1043;-71
2023/05/16 13:49:07;;;;;;;;;;;18.80;59.80;;;;;;5019477;28;851;-68
2023/05/16 13:51:32;;;;;;;;;;;18.80;59.80;;;;;;5022050;28;1269;-70
2023/05/16 13:53:58;;;;;;;;;;;18.80;59.80;;;;;;5021062;28;877;-70
2023/05/16 13:56:24;;;;;;;;;;;18.70;59.40;;;;;;5024290;28;1492;-68
2023/05/16 13:58:50;;;;;;;;;;;18.70;59.50;;;;;;5022001;28;1914;-68
2023/05/16 14:01:16;;;;;;;;;;;18.80;59.60;;;;;;5019337;28;1317;-69
2023/05/16 14:03:42;;;;;;;;;;;18.80;59.50;;;;;;5022246;28;837;-69
2023/05/16 14:06:07;;;;;;;;;;;18.80;59.40;;;;;;5020915;28;906;-70
2023/05/16 14:08:33;;;;;;;;;;;18.80;59.10;;;;;;5023554;28;788;-69
2023/05/16 14:10:58;;;;;;;;;;;18.80;58.90;;;;;;5013951;28;1311;-69
2023/05/16 14:13:24;;;;;;;;;;;18.70;58.70;;;;;;5022169;28;946;-69
2023/05/16 14:15:51;;;;;;;;;;;18.80;59.50;;;;;;5019409;28;816;-70
2023/05/16 14:18:16;;;;;;;;;;;18.80;59.80;;;;;;5016910;28;841;-69
2023/05/16 14:20:41;;;;;;;;;;;18.70;60.10;;;;;;5020141;28;1977;-69
2023/05/16 14:23:07;;;;;;;;;;;18.80;59.90;;;;;;5005497;28;1271;-69
2023/05/16 14:25:32;;;;;;;;;;;18.80;59.90;;;;;;5018307;28;1022;-69
2023/05/16 14:27:58;;;;;;;;;;;18.70;60.00;;;;;;5018237;28;872;-68
2023/05/16 14:30:23;;;;;;;;;;;18.70;60.20;;;;;;5004055;28;1268;-69
2023/05/16 14:32:49;;;;;;;;;;;18.70;60.30;;;;;;5020401;28;870;-69